createdAt,value
2018-06-21T00:01:46.062Z,19.10
2018-06-21T00:04:14.731Z,19.10
2018-06-21T00:06:43.443Z,19.10
2018-06-21T00:09:12.131Z,19.00
2018-06-21T00:11:40.801Z,19.00
2018-06-21T00:14:09.805Z,19.00
2018-06-21T00:16:38.493Z,18.90
2018-06-21T00:19:07.184Z,18.90
2018-06-21T00:21:35.857Z,18.90
2018-06-21T00:24:18.614Z,18.80
2018-06-21T00:26:47.305Z,18.90
2018-06-21T00:29:16.104Z,18.80
2018-06-21T00:31:44.714Z,18.80
2018-06-21T00:34:13.387Z,18.80
2018-06-21T00:36:42.118Z,18.70
2018-06-21T00:39:10.804Z,18.70
2018-06-21T00:41:39.517Z,18.70
2018-06-21T00:44:08.232Z,18.80
2018-06-21T00:46:36.914Z,18.80
2018-06-21T00:49:05.610Z,18.70
2018-06-21T00:51:34.292Z,18.70
2018-06-21T00:54:03.010Z,18.60
2018-06-21T00:56:31.683Z,18.50
2018-06-21T00:59:00.476Z,18.40
2018-06-21T01:01:29.125Z,18.40
2018-06-21T01:03:57.856Z,18.30
2018-06-21T01:06:45.344Z,18.30
2018-06-21T01:09:14.058Z,18.30
2018-06-21T01:11:42.726Z,18.40
2018-06-21T01:14:11.398Z,18.40
2018-06-21T01:16:40.144Z,18.40
2018-06-21T01:19:08.845Z,18.40
2018-06-21T01:21:37.565Z,18.40
2018-06-21T01:24:06.225Z,18.30
2018-06-21T01:26:34.914Z,18.30
2018-06-21T01:29:03.579Z,18.30
2018-06-21T01:31:32.268Z,18.20
2018-06-21T01:34:00.965Z,18.20
2018-06-21T01:36:29.621Z,18.20
2018-06-21T01:39:14.152Z,18.20
2018-06-21T01:41:42.822Z,18.20
2018-06-21T01:44:11.851Z,18.20
2018-06-21T01:46:40.536Z,18.10
2018-06-21T01:49:09.218Z,18.10
2018-06-21T01:51:37.937Z,18.20
2018-06-21T01:54:06.605Z,18.20
2018-06-21T01:56:35.338Z,18.30
2018-06-21T01:59:04.079Z,18.30
2018-06-21T02:01:32.751Z,18.30
2018-06-21T02:04:01.473Z,18.30
2018-06-21T02:06:30.179Z,18.20
2018-06-21T02:08:58.899Z,18.20
2018-06-21T02:11:27.568Z,18.20
2018-06-21T02:16:24.683Z,18.20
2018-06-21T02:18:53.367Z,18.10
2018-06-21T02:21:22.069Z,18.00
2018-06-21T02:23:50.742Z,17.90
2018-06-21T02:26:19.442Z,17.80
2018-06-21T02:28:48.180Z,17.80
2018-06-21T02:31:16.865Z,17.70
2018-06-21T02:36:38.910Z,17.70
2018-06-21T02:39:08.651Z,17.60
2018-06-21T02:41:37.330Z,17.60
2018-06-21T02:44:06.103Z,17.50
2018-06-21T02:46:34.811Z,17.40
2018-06-21T02:49:03.506Z,17.40
2018-06-21T02:54:00.547Z,17.30
2018-06-21T02:56:29.253Z,17.30
2018-06-21T02:58:57.946Z,17.30
2018-06-21T03:01:26.607Z,17.30
2018-06-21T03:03:55.371Z,17.40
2018-06-21T03:06:24.103Z,17.40
2018-06-21T03:08:52.755Z,17.40
2018-06-21T03:11:21.823Z,17.40
2018-06-21T03:13:50.554Z,17.40
2018-06-21T03:16:19.258Z,17.40
2018-06-21T03:18:49.063Z,17.40
2018-06-21T03:21:17.777Z,17.40
2018-06-21T03:23:46.435Z,17.40
2018-06-21T03:26:15.125Z,17.30
2018-06-21T03:28:43.819Z,17.30
2018-06-21T03:31:12.503Z,17.30
2018-06-21T03:33:41.215Z,17.30
2018-06-21T03:36:09.954Z,17.20
2018-06-21T03:38:38.734Z,17.20
2018-06-21T03:41:07.459Z,17.20
2018-06-21T03:43:36.150Z,17.20
2018-06-21T03:46:05.016Z,17.20
2018-06-21T03:48:33.948Z,17.10
2018-06-21T03:51:02.622Z,17.20
2018-06-21T03:53:31.335Z,17.20
2018-06-21T03:56:00.024Z,17.30
2018-06-21T03:58:28.750Z,17.30
2018-06-21T04:00:57.432Z,17.30
2018-06-21T04:03:26.149Z,17.40
2018-06-21T04:05:54.857Z,17.40
2018-06-21T04:08:23.542Z,17.40
2018-06-21T04:10:52.280Z,17.40
2018-06-21T04:13:20.950Z,17.40
2018-06-21T04:15:49.656Z,17.50
2018-06-21T04:18:22.542Z,17.50
2018-06-21T04:20:51.242Z,17.50
2018-06-21T04:23:19.974Z,17.60
2018-06-21T04:25:48.663Z,17.60
2018-06-21T04:28:17.325Z,17.60
2018-06-21T04:30:46.035Z,17.70
2018-06-21T04:33:14.862Z,17.70
2018-06-21T04:35:43.575Z,17.80
2018-06-21T04:38:12.685Z,17.80
2018-06-21T04:40:41.366Z,17.90
2018-06-21T04:43:10.116Z,17.90
2018-06-21T04:45:38.834Z,18.00
2018-06-21T04:48:07.543Z,18.10
2018-06-21T04:50:52.139Z,18.20
2018-06-21T04:53:20.891Z,18.40
2018-06-21T04:55:49.623Z,18.60
2018-06-21T04:58:18.818Z,18.70
2018-06-21T05:00:47.518Z,18.80
2018-06-21T05:03:16.194Z,19.00
2018-06-21T05:05:44.963Z,19.10
2018-06-21T05:08:13.645Z,19.20
2018-06-21T05:10:42.330Z,19.20
2018-06-21T05:13:11.006Z,19.20
2018-06-21T05:15:39.677Z,19.20
2018-06-21T05:18:08.380Z,19.20
2018-06-21T05:20:37.073Z,19.20
2018-06-21T05:23:05.944Z,19.20
2018-06-21T05:28:04.048Z,19.50
2018-06-21T05:30:32.774Z,19.60
2018-06-21T05:33:01.436Z,19.70
2018-06-21T05:35:30.162Z,20.00
2018-06-21T05:37:58.923Z,20.50
2018-06-21T05:40:31.127Z,21.40
2018-06-21T05:43:01.299Z,22.50
2018-06-21T05:45:30.072Z,23.50
2018-06-21T05:48:00.391Z,24.20
2018-06-21T05:52:59.110Z,25.20
2018-06-21T05:55:28.591Z,25.20
2018-06-21T06:00:50.566Z,25.70
2018-06-21T06:03:19.299Z,26.00
2018-06-21T06:05:47.966Z,26.30
2018-06-21T06:08:16.629Z,26.60
2018-06-21T06:10:45.346Z,26.50
2018-06-21T06:13:14.010Z,26.60
2018-06-21T06:15:42.740Z,26.80
2018-06-21T06:18:11.434Z,27.10
2018-06-21T06:20:40.164Z,27.20
2018-06-21T06:23:08.896Z,26.80
2018-06-21T06:25:37.600Z,27.00
2018-06-21T06:30:34.654Z,27.20
2018-06-21T06:33:03.310Z,27.00
2018-06-21T06:35:32.086Z,27.00
2018-06-21T06:38:01.564Z,27.40
2018-06-21T06:40:30.460Z,26.90
2018-06-21T06:45:27.427Z,26.70
2018-06-21T06:47:56.168Z,26.70
2018-06-21T06:52:53.299Z,26.50
2018-06-21T06:55:21.989Z,26.60
2018-06-21T06:57:50.651Z,26.40
2018-06-21T07:00:19.394Z,26.20
2018-06-21T07:02:48.101Z,25.70
2018-06-21T07:05:16.858Z,25.40
2018-06-21T07:07:45.527Z,25.30
2018-06-21T07:10:14.200Z,25.20
2018-06-21T07:12:42.926Z,25.20
2018-06-21T07:15:11.600Z,25.20
2018-06-21T07:17:40.411Z,25.30
2018-06-21T07:20:09.190Z,25.30
2018-06-21T07:22:37.882Z,25.00
2018-06-21T07:27:34.959Z,25.10
2018-06-21T07:30:03.773Z,25.20
2018-06-21T07:32:32.456Z,25.10
2018-06-21T07:35:01.160Z,25.10
2018-06-21T07:37:30.102Z,25.10
2018-06-21T07:39:58.793Z,25.20
2018-06-21T07:42:27.511Z,25.20
2018-06-21T07:44:56.227Z,25.10
2018-06-21T07:47:24.966Z,25.10
2018-06-21T07:49:53.683Z,25.10
2018-06-21T07:52:22.372Z,25.20
2018-06-21T07:54:51.123Z,25.30
2018-06-21T07:57:19.794Z,25.30
2018-06-21T08:02:16.835Z,25.40
2018-06-21T08:04:45.590Z,25.40
2018-06-21T08:07:14.309Z,25.40
2018-06-21T08:09:43.005Z,25.30
2018-06-21T08:14:40.027Z,25.10
2018-06-21T08:17:08.721Z,24.90
2018-06-21T08:19:37.458Z,24.80
2018-06-21T08:22:06.169Z,24.70
2018-06-21T08:27:28.238Z,24.50
2018-06-21T08:29:57.032Z,24.60
2018-06-21T08:32:25.701Z,24.60
2018-06-21T08:34:54.383Z,24.50
2018-06-21T08:37:23.111Z,24.40
2018-06-21T08:42:44.263Z,24.10
2018-06-21T08:45:12.957Z,24.10
2018-06-21T08:47:41.625Z,24.20
2018-06-21T08:50:10.309Z,24.20
2018-06-21T08:52:39.063Z,24.30
2018-06-21T08:55:07.786Z,24.30
2018-06-21T08:57:36.458Z,24.20
2018-06-21T09:00:05.175Z,24.30
2018-06-21T09:02:34.152Z,24.40
2018-06-21T09:05:03.248Z,24.30
2018-06-21T09:07:31.951Z,24.30
2018-06-21T09:10:00.691Z,24.30
2018-06-21T09:12:34.864Z,24.50
2018-06-21T09:15:03.951Z,24.50
2018-06-21T09:17:32.636Z,24.50
2018-06-21T09:20:01.563Z,24.60
2018-06-21T09:22:31.006Z,24.80
2018-06-21T09:25:00.224Z,24.70
2018-06-21T09:27:28.993Z,24.80
2018-06-21T09:29:58.169Z,24.90
2018-06-21T09:32:28.014Z,24.80
2018-06-21T09:34:56.824Z,24.80
2018-06-21T09:37:37.568Z,24.60
2018-06-21T09:46:14.875Z,24.40
2018-06-21T09:48:48.904Z,24.40
2018-06-21T09:51:17.590Z,24.60
2018-06-21T09:53:46.334Z,24.50
2018-06-21T09:56:15.042Z,24.60
2018-06-21T09:58:43.760Z,24.80
2018-06-21T10:01:12.447Z,24.90
2018-06-21T10:06:09.468Z,25.00
2018-06-21T10:08:38.136Z,24.80
2018-06-21T10:11:06.866Z,24.70
2018-06-21T10:16:03.862Z,24.80
2018-06-21T10:18:36.282Z,25.00
2018-06-21T10:21:05.851Z,25.20
2018-06-21T10:23:34.509Z,25.10
2018-06-21T10:26:03.231Z,25.30
2018-06-21T10:28:31.900Z,25.60
2018-06-21T10:31:00.631Z,25.80
2018-06-21T10:33:29.296Z,25.50
2018-06-21T10:35:57.968Z,25.70
2018-06-21T10:38:26.665Z,25.50
2018-06-21T10:40:55.325Z,25.60
2018-06-21T10:43:24.010Z,25.50
2018-06-21T10:45:52.718Z,25.60
2018-06-21T10:48:21.418Z,25.70
2018-06-21T10:50:50.101Z,25.90
2018-06-21T10:53:18.774Z,25.70
2018-06-21T10:55:47.464Z,25.50
2018-06-21T10:58:16.224Z,25.60
2018-06-21T11:00:44.897Z,25.90
2018-06-21T11:05:41.906Z,25.70
2018-06-21T11:08:10.638Z,25.40
2018-06-21T11:10:39.354Z,25.50
2018-06-21T11:13:08.026Z,25.50
2018-06-21T11:15:38.815Z,25.10
2018-06-21T11:18:14.210Z,25.20
2018-06-21T11:20:43.496Z,25.30
2018-06-21T11:23:12.133Z,25.20
2018-06-21T11:25:40.789Z,25.00
2018-06-21T11:28:09.595Z,24.80
2018-06-21T11:30:38.289Z,25.00
2018-06-21T11:33:06.995Z,24.80
2018-06-21T11:35:35.911Z,25.10
2018-06-21T11:38:04.704Z,25.40
2018-06-21T11:40:33.369Z,25.60
2018-06-21T11:45:30.383Z,25.80
2018-06-21T11:47:59.050Z,25.80
2018-06-21T11:50:27.972Z,26.00
2018-06-21T11:52:56.653Z,26.30
2018-06-21T11:55:25.346Z,26.40
2018-06-21T11:57:54.086Z,26.60
2018-06-21T12:02:51.322Z,26.20
2018-06-21T12:05:20.039Z,26.10
2018-06-21T12:10:17.030Z,25.90
2018-06-21T12:12:45.710Z,26.00
2018-06-21T12:15:14.417Z,25.90
2018-06-21T12:17:43.158Z,26.00
2018-06-21T12:20:11.827Z,26.10
2018-06-21T12:22:40.523Z,26.40
2018-06-21T12:25:09.195Z,26.30
2018-06-21T12:27:37.894Z,26.10
2018-06-21T12:30:06.611Z,25.80
2018-06-21T12:32:35.295Z,26.00
2018-06-21T12:35:04.017Z,26.10
2018-06-21T12:37:33.054Z,26.30
2018-06-21T12:42:30.050Z,26.20
2018-06-21T12:44:58.742Z,26.30
2018-06-21T12:47:27.453Z,26.30
2018-06-21T12:49:56.131Z,26.40
2018-06-21T12:52:24.879Z,26.50
2018-06-21T12:54:53.580Z,26.20
2018-06-21T12:57:22.244Z,25.70
2018-06-21T12:59:50.947Z,25.60
2018-06-21T13:02:19.650Z,25.30
2018-06-21T13:04:48.324Z,25.40
2018-06-21T13:07:17.047Z,25.40
2018-06-21T13:09:56.795Z,25.40
2018-06-21T13:12:37.904Z,25.30
2018-06-21T13:17:35.006Z,25.70
2018-06-21T13:20:04.848Z,25.60
2018-06-21T13:22:33.522Z,25.60
2018-06-21T13:25:02.251Z,25.80
2018-06-21T13:29:59.253Z,26.10
2018-06-21T13:32:28.062Z,26.20
2018-06-21T13:34:56.751Z,26.60
2018-06-21T13:37:25.445Z,26.70
2018-06-21T13:39:54.128Z,26.50
2018-06-21T13:42:22.851Z,26.00
2018-06-21T13:44:51.597Z,25.60
2018-06-21T13:47:20.270Z,25.40
2018-06-21T13:49:49.026Z,25.30
2018-06-21T13:52:17.747Z,25.20
2018-06-21T13:54:46.494Z,25.10
2018-06-21T13:57:15.236Z,24.90
2018-06-21T13:59:43.995Z,25.00
2018-06-21T14:02:12.674Z,24.70
2018-06-21T14:04:41.389Z,24.70
2018-06-21T14:07:10.082Z,24.60
2018-06-21T14:09:41.133Z,23.80
2018-06-21T14:12:09.950Z,23.80
2018-06-21T14:14:38.631Z,23.50
2018-06-21T14:17:07.290Z,23.40
2018-06-21T14:19:36.003Z,23.60
2018-06-21T14:22:04.746Z,24.30
2018-06-21T14:24:33.517Z,24.80
2018-06-21T14:27:02.195Z,25.10
2018-06-21T14:29:30.909Z,25.20
2018-06-21T14:31:59.581Z,25.40
2018-06-21T14:34:28.274Z,25.40
2018-06-21T14:36:57.040Z,25.40
2018-06-21T14:39:25.709Z,25.00
2018-06-21T14:41:54.440Z,24.80
2018-06-21T14:44:23.194Z,24.90
2018-06-21T14:46:51.885Z,24.70
2018-06-21T14:49:20.592Z,24.20
2018-06-21T14:51:49.367Z,24.20
2018-06-21T14:54:18.111Z,24.20
2018-06-21T14:56:46.770Z,24.00
2018-06-21T14:59:15.480Z,23.90
2018-06-21T15:01:44.192Z,23.70
2018-06-21T15:04:12.903Z,23.90
2018-06-21T15:06:41.605Z,24.00
2018-06-21T15:09:12.250Z,23.60
2018-06-21T15:11:40.929Z,23.70
2018-06-21T15:14:09.580Z,23.60
2018-06-21T15:16:38.309Z,23.40
2018-06-21T15:19:06.983Z,23.30
2018-06-21T15:21:35.710Z,23.50
2018-06-21T15:24:04.442Z,23.40
2018-06-21T15:26:33.201Z,23.40
2018-06-21T15:29:01.946Z,23.30
2018-06-21T15:31:30.667Z,23.30
2018-06-21T15:33:59.332Z,23.00
2018-06-21T15:36:28.063Z,23.20
2018-06-21T15:38:58.538Z,23.10
2018-06-21T15:41:28.984Z,22.80
2018-06-21T15:43:57.646Z,22.70
2018-06-21T15:46:28.397Z,22.60
2018-06-21T15:48:57.102Z,22.40
2018-06-21T15:51:25.801Z,22.10
2018-06-21T15:53:54.534Z,22.00
2018-06-21T15:56:23.213Z,21.80
2018-06-21T15:58:51.931Z,21.70
2018-06-21T16:01:20.655Z,21.90
2018-06-21T16:03:56.038Z,22.00
2018-06-21T16:06:25.796Z,22.20
2018-06-21T16:08:57.726Z,22.40
2018-06-21T16:11:26.395Z,22.00
2018-06-21T16:13:55.122Z,21.90
2018-06-21T16:16:23.842Z,21.70
2018-06-21T16:18:52.557Z,21.70
2018-06-21T16:21:21.253Z,21.60
2018-06-21T16:23:49.900Z,21.50
2018-06-21T16:26:18.566Z,21.30
2018-06-21T16:28:50.651Z,21.30
2018-06-21T16:31:19.327Z,21.00
2018-06-21T16:33:48.050Z,20.80
2018-06-21T16:36:16.747Z,20.70
2018-06-21T16:38:45.519Z,20.40
2018-06-21T16:41:14.234Z,20.40
2018-06-21T16:46:11.591Z,20.20
2018-06-21T16:51:08.762Z,20.10
2018-06-21T16:53:37.521Z,20.10
2018-06-21T16:56:06.321Z,20.20
2018-06-21T16:58:35.048Z,20.20
2018-06-21T17:01:03.865Z,20.20
2018-06-21T17:03:32.566Z,20.30
2018-06-21T17:06:01.374Z,20.50
2018-06-21T17:08:30.057Z,20.70
2018-06-21T17:10:58.801Z,21.00
2018-06-21T17:13:27.586Z,21.20
2018-06-21T17:15:56.374Z,21.30
2018-06-21T17:18:25.165Z,21.30
2018-06-21T17:20:53.994Z,21.30
2018-06-21T17:23:22.709Z,21.40
2018-06-21T17:25:51.440Z,21.40
2018-06-21T17:28:20.210Z,21.30
2018-06-21T17:30:48.938Z,21.60
2018-06-21T17:33:17.652Z,22.00
2018-06-21T17:35:46.365Z,22.40
2018-06-21T17:38:15.265Z,22.60
2018-06-21T17:40:44.178Z,22.80
2018-06-21T17:43:12.940Z,22.90
2018-06-21T17:45:44.664Z,22.90
2018-06-21T17:48:13.522Z,22.70
2018-06-21T17:50:42.418Z,22.00
2018-06-21T17:53:11.170Z,21.60
2018-06-21T17:55:39.875Z,21.30
2018-06-21T17:58:08.725Z,21.00
2018-06-21T18:00:37.409Z,20.60
2018-06-21T18:03:06.093Z,20.40
2018-06-21T18:05:34.763Z,20.20
2018-06-21T18:08:03.634Z,20.10
2018-06-21T18:10:32.307Z,20.00
2018-06-21T18:13:01.035Z,19.70
2018-06-21T18:15:29.934Z,19.60
2018-06-21T18:18:00.779Z,19.30
2018-06-21T18:20:29.557Z,19.30
2018-06-21T18:22:58.332Z,19.30
2018-06-21T18:25:27.130Z,19.30
2018-06-21T18:27:56.711Z,19.10
2018-06-21T18:30:25.467Z,19.10
2018-06-21T18:35:47.380Z,18.80
2018-06-21T18:38:16.098Z,18.70
2018-06-21T18:40:44.829Z,18.60
2018-06-21T18:43:13.735Z,18.60
2018-06-21T18:45:42.641Z,18.50
2018-06-21T18:48:11.393Z,18.50
2018-06-21T18:50:40.126Z,18.60
2018-06-21T18:53:08.806Z,18.60
2018-06-21T18:55:37.539Z,18.60
2018-06-21T18:58:06.228Z,18.60
2018-06-21T19:00:34.946Z,18.50
2018-06-21T19:03:26.153Z,18.40
2018-06-21T19:05:54.903Z,18.40
2018-06-21T19:08:28.951Z,18.40
2018-06-21T19:11:03.212Z,18.30
2018-06-21T19:13:52.296Z,18.30
2018-06-21T19:16:21.079Z,18.20
2018-06-21T19:18:55.087Z,18.20
2018-06-21T19:21:23.893Z,18.10
2018-06-21T19:23:52.891Z,18.10
2018-06-21T19:26:25.040Z,18.10
2018-06-21T19:28:53.697Z,18.00
2018-06-21T19:31:22.412Z,17.90
2018-06-21T19:33:57.860Z,17.80
2018-06-21T19:36:26.581Z,17.90
2018-06-21T19:38:55.271Z,17.80
2018-06-21T19:41:31.022Z,17.80
2018-06-21T19:44:08.547Z,17.70
2018-06-21T19:46:38.000Z,17.50
2018-06-21T19:49:19.537Z,17.50
2018-06-21T19:51:48.198Z,17.40
2018-06-21T19:54:16.926Z,17.40
2018-06-21T19:56:45.726Z,17.20
2018-06-21T19:59:14.436Z,17.20
2018-06-21T20:01:43.174Z,17.20
2018-06-21T20:04:11.857Z,17.20
2018-06-21T20:06:40.565Z,17.10
2018-06-21T20:09:14.866Z,17.10
2018-06-21T20:11:43.570Z,17.00
2018-06-21T20:14:12.305Z,17.00
2018-06-21T20:16:41.040Z,16.90
2018-06-21T20:19:12.838Z,16.90
2018-06-21T20:21:41.602Z,16.70
2018-06-21T20:24:10.444Z,16.70
2018-06-21T20:26:39.169Z,16.60
2018-06-21T20:29:13.066Z,16.60
2018-06-21T20:31:41.983Z,16.50
2018-06-21T20:34:10.718Z,16.40
2018-06-21T20:36:39.423Z,16.30
2018-06-21T20:39:09.507Z,16.30
2018-06-21T20:41:38.192Z,16.20
2018-06-21T20:44:06.982Z,16.10
2018-06-21T20:46:35.770Z,15.90
2018-06-21T20:49:04.459Z,15.70
2018-06-21T20:51:33.176Z,15.60
2018-06-21T20:54:01.887Z,15.50
2018-06-21T20:56:32.699Z,15.50
2018-06-21T20:59:01.394Z,15.40
2018-06-21T21:01:30.131Z,15.30
2018-06-21T21:03:59.112Z,15.10
2018-06-21T21:06:27.790Z,15.10
2018-06-21T21:11:24.786Z,15.00
2018-06-21T21:13:53.519Z,14.90
2018-06-21T21:16:22.378Z,14.90
2018-06-21T21:18:51.161Z,14.80
2018-06-21T21:21:38.464Z,14.70
2018-06-21T21:27:00.134Z,14.50
2018-06-21T21:29:29.020Z,14.40
2018-06-21T21:32:17.752Z,14.30
2018-06-21T21:34:49.703Z,14.20
2018-06-21T21:37:18.395Z,14.20
2018-06-21T21:39:47.106Z,14.10
2018-06-21T21:42:15.794Z,14.10
2018-06-21T21:44:44.507Z,14.00
2018-06-21T21:47:13.270Z,13.90
2018-06-21T21:49:41.963Z,13.70
2018-06-21T21:52:10.643Z,13.60
2018-06-21T21:54:39.353Z,13.50
2018-06-21T21:57:08.064Z,13.50
2018-06-21T21:59:36.744Z,13.40
2018-06-21T22:02:05.487Z,13.40
2018-06-21T22:04:34.178Z,13.30
2018-06-21T22:07:02.901Z,13.20
2018-06-21T22:09:31.606Z,13.10
2018-06-21T22:12:00.351Z,13.00
2018-06-21T22:14:29.081Z,12.90
2018-06-21T22:16:57.801Z,12.90
2018-06-21T22:19:26.495Z,12.90
2018-06-21T22:21:55.186Z,12.80
2018-06-21T22:24:24.210Z,12.80
2018-06-21T22:26:53.045Z,12.80
2018-06-21T22:29:21.795Z,12.70
2018-06-21T22:31:50.693Z,12.60
2018-06-21T22:34:19.603Z,12.60
2018-06-21T22:36:48.566Z,12.60
2018-06-21T22:39:17.310Z,12.50
2018-06-21T22:41:46.010Z,12.40
2018-06-21T22:44:14.704Z,12.40
2018-06-21T22:46:43.422Z,12.40
2018-06-21T22:49:12.161Z,12.30
2018-06-21T22:51:40.861Z,12.30
2018-06-21T22:54:09.590Z,12.20
2018-06-21T22:59:06.610Z,12.00
2018-06-21T23:01:35.318Z,11.90
2018-06-21T23:04:04.026Z,11.70
2018-06-21T23:06:32.779Z,11.70
2018-06-21T23:09:01.460Z,11.70
2018-06-21T23:11:30.133Z,11.60
2018-06-21T23:13:58.843Z,11.50
2018-06-21T23:16:27.538Z,11.50
2018-06-21T23:19:07.273Z,11.50
2018-06-21T23:21:35.962Z,11.40
2018-06-21T23:24:04.727Z,11.30
2018-06-21T23:26:33.485Z,11.30
2018-06-21T23:29:02.159Z,11.20
2018-06-21T23:33:59.184Z,11.20
2018-06-21T23:36:27.885Z,11.10
2018-06-21T23:38:56.578Z,11.10
2018-06-21T23:41:25.279Z,11.20
2018-06-21T23:49:39.467Z,11.10
2018-06-21T23:54:36.464Z,11.10
2018-06-21T23:57:05.239Z,11.10
2018-06-21T23:59:33.935Z,11.10
